Time;durP1;ratioP1;P1;durP2;ratioP2;P2;SDS_P1;SDS_P2;PMS_P1;PMS_P2;Temp;Humidity;BMP_temperature;BMP_pressure;BME280_temperature;BME280_humidity;BME280_pressure;Samples;Min_cycle;Max_cycle;Signal;HPM_P1;HPM_P2
2023/02/27 00:00:58;;;;;;;10.05;3.00;;;;;;;1.65;51.19;101847.19;4914852;29;20056;-63
2023/02/27 00:03:26;;;;;;;7.32;2.55;;;;;;;1.68;51.12;101863.03;4912482;29;20052;-64
2023/02/27 00:05:55;;;;;;;6.25;2.80;;;;;;;1.83;50.81;101846.34;4906328;29;20043;-65
2023/02/27 00:08:23;;;;;;;8.00;3.28;;;;;;;1.80;50.67;101842.19;4924856;29;20070;-65
2023/02/27 00:10:50;;;;;;;8.07;3.00;;;;;;;1.75;50.66;101846.66;4923547;28;20762;-65
2023/02/27 00:13:18;;;;;;;6.68;2.95;;;;;;;1.91;50.89;101851.47;4939052;29;20070;-65
2023/02/27 00:15:46;;;;;;;7.45;3.25;;;;;;;1.76;50.94;101849.13;4913180;29;20051;-65
2023/02/27 00:18:14;;;;;;;8.73;3.20;;;;;;;1.79;50.91;101840.53;4939917;29;20087;-65
2023/02/27 00:20:41;;;;;;;6.18;3.00;;;;;;;1.63;51.64;101856.63;4920479;29;20056;-64
2023/02/27 00:23:11;;;;;;;7.07;3.08;;;;;;;1.56;51.72;101842.28;4939076;29;20518;-65
2023/02/27 00:25:39;;;;;;;7.68;3.30;;;;;;;1.72;51.36;101849.81;4922119;29;20044;-65
2023/02/27 00:28:06;;;;;;;10.52;3.30;;;;;;;1.85;51.39;101847.75;4925539;29;20060;-64
2023/02/27 00:30:34;;;;;;;6.45;3.33;;;;;;;1.57;51.91;101846.69;4923011;29;20098;-65
2023/02/27 00:33:02;;;;;;;6.97;3.25;;;;;;;1.55;51.78;101849.59;4922656;29;20403;-65
2023/02/27 00:35:29;;;;;;;8.43;3.45;;;;;;;1.39;52.49;101847.50;4937624;29;20059;-65
2023/02/27 00:37:57;;;;;;;9.07;3.08;;;;;;;1.57;52.35;101847.47;4932273;29;20416;-64
2023/02/27 00:40:25;;;;;;;7.35;3.28;;;;;;;1.67;51.72;101846.97;4922157;29;20059;-65
2023/02/27 00:42:52;;;;;;;10.60;3.25;;;;;;;1.41;52.49;101848.09;4937739;29;20055;-64
2023/02/27 00:45:20;;;;;;;9.93;3.50;;;;;;;1.46;52.36;101850.13;4937626;29;20059;-65
2023/02/27 00:47:48;;;;;;;8.55;3.35;;;;;;;1.32;52.82;101849.47;4921771;29;20427;-65
2023/02/27 00:50:15;;;;;;;8.18;3.83;;;;;;;1.46;52.76;101861.81;4939543;29;20056;-65
2023/02/27 00:52:43;;;;;;;9.75;3.33;;;;;;;1.39;52.89;101861.06;4938696;29;20056;-65
2023/02/27 00:55:11;;;;;;;6.75;3.38;;;;;;;1.36;52.96;101852.56;4913870;29;20052;-64
2023/02/27 00:57:39;;;;;;;10.50;3.22;;;;;;;1.37;53.09;101848.75;4926622;29;20078;-63
2023/02/27 01:00:07;;;;;;;8.27;3.42;;;;;;;1.39;53.31;101874.66;4919296;29;20063;-65
2023/02/27 01:02:35;;;;;;;8.18;3.70;;;;;;;1.38;53.21;101862.09;4938017;29;20074;-64
2023/02/27 01:05:03;;;;;;;9.68;3.63;;;;;;;1.22;53.63;101873.53;4922246;29;20051;-64
2023/02/27 01:07:30;;;;;;;7.30;3.40;;;;;;;1.31;53.50;101858.63;4936544;29;20063;-64
2023/02/27 01:10:00;;;;;;;10.57;3.95;;;;;;;1.23;53.95;101863.53;4938380;29;20056;-65
2023/02/27 01:12:29;;;;;;;9.48;4.10;;;;;;;1.47;53.13;101862.63;4926655;29;20542;-64
2023/02/27 01:14:56;;;;;;;7.65;3.22;;;;;;;1.43;53.47;101858.75;4920451;29;20056;-65
2023/02/27 01:17:24;;;;;;;6.65;3.45;;;;;;;1.38;53.80;101859.41;4936979;29;20055;-64
2023/02/27 01:19:51;;;;;;;11.07;3.42;;;;;;;1.34;53.71;101860.91;4922053;29;20056;-64
2023/02/27 01:22:18;;;;;;;8.38;4.10;;;;;;;1.11;53.81;101856.16;4937546;29;20086;-65
2023/02/27 01:24:46;;;;;;;8.68;3.92;;;;;;;1.05;54.67;101862.44;4941302;29;20074;-64
2023/02/27 01:27:13;;;;;;;9.77;3.90;;;;;;;1.15;54.29;101854.63;4940277;29;20048;-65
2023/02/27 01:29:41;;;;;;;9.52;3.72;;;;;;;1.20;54.25;101845.00;4925749;29;20079;-64
2023/02/27 01:32:09;;;;;;;15.82;3.85;;;;;;;1.00;54.81;101859.56;4924428;29;20048;-65
2023/02/27 01:34:37;;;;;;;11.02;3.92;;;;;;;1.02;54.96;101868.31;4941828;29;20052;-64
2023/02/27 01:37:04;;;;;;;7.38;3.83;;;;;;;1.12;54.80;101876.78;4941507;29;20058;-64
2023/02/27 01:39:32;;;;;;;9.70;4.25;;;;;;;0.94;55.59;101865.06;4942943;29;20062;-64
2023/02/27 01:41:59;;;;;;;11.00;3.85;;;;;;;1.19;54.84;101852.28;4923963;29;20399;-64
2023/02/27 01:44:29;;;;;;;7.20;3.60;;;;;;;1.11;55.18;101860.72;4941687;29;20052;-64
2023/02/27 01:46:57;;;;;;;8.75;3.38;;;;;;;0.96;55.21;101846.66;4940420;29;20111;-64
2023/02/27 01:49:30;;;;;;;9.00;3.72;;;;;;;1.01;55.35;101839.53;4942807;29;20495;-64
2023/02/27 01:52:01;;;;;;;8.63;3.83;;;;;;;0.93;55.88;101855.25;4941318;29;20059;-65
2023/02/27 01:54:31;;;;;;;6.50;3.20;;;;;;;0.95;56.03;101855.88;4942901;29;20063;-66
2023/02/27 01:57:05;;;;;;;8.05;3.83;;;;;;;0.98;55.80;101858.97;4918439;29;20056;-64
2023/02/27 01:59:33;;;;;;;10.77;4.13;;;;;;;0.77;56.57;101856.66;4922155;29;20052;-64
2023/02/27 02:02:08;;;;;;;10.05;4.18;;;;;;;0.79;56.63;101846.41;4919726;29;20051;-63
2023/02/27 02:04:37;;;;;;;9.95;4.07;;;;;;;0.84;56.34;101845.72;4925502;29;20393;-64
2023/02/27 02:07:12;;;;;;;11.07;3.85;;;;;;;0.81;56.86;101846.19;4924129;29;20044;-65
2023/02/27 02:09:43;;;;;;;9.85;3.90;;;;;;;1.04;56.39;101838.25;4925288;29;20420;-64
2023/02/27 02:12:13;;;;;;;9.20;3.58;;;;;;;1.34;55.53;101835.66;4940767;29;20059;-65
2023/02/27 02:14:42;;;;;;;8.90;3.55;;;;;;;0.90;56.25;101842.16;4924736;29;20086;-64
2023/02/27 02:17:46;;;;;;;9.07;3.78;;;;;;;0.82;56.91;101828.88;4923811;29;20043;-64
2023/02/27 02:20:26;;;;;;;10.60;3.58;;;;;;;1.02;56.58;101824.94;4941940;29;20561;-64
2023/02/27 02:23:18;;;;;;;9.63;3.55;;;;;;;1.01;55.99;101817.00;4941700;29;20051;-65
2023/02/27 02:26:19;;;;;;;9.45;3.35;;;;;;;0.97;55.98;101824.78;4939502;29;20059;-66
2023/02/27 02:29:11;;;;;;;9.10;3.83;;;;;;;0.84;56.43;101815.91;4941841;29;20051;-65
2023/02/27 02:32:03;;;;;;;11.15;3.80;;;;;;;0.96;56.34;101820.38;4938317;29;20055;-67
2023/02/27 02:35:00;;;;;;;8.60;3.65;;;;;;;0.96;56.07;101812.25;4901721;29;20492;-64
2023/02/27 02:37:42;;;;;;;8.95;3.38;;;;;;;0.90;56.06;101818.56;4892766;29;20065;-64
2023/02/27 02:40:21;;;;;;;9.35;3.55;;;;;;;0.87;56.16;101827.13;4920901;29;20488;-64
2023/02/27 02:43:05;;;;;;;9.20;3.35;;;;;;;0.98;56.00;101817.44;4939673;29;20051;-64
2023/02/27 02:45:53;;;;;;;8.88;3.80;;;;;;;1.04;55.38;101816.56;4940196;29;20064;-66
2023/02/27 02:48:39;;;;;;;11.02;3.72;;;;;;;1.37;54.83;101821.63;4922861;29;20044;-66
2023/02/27 02:51:21;;;;;;;8.75;3.67;;;;;;;1.30;54.51;101820.88;4927404;29;20063;-67
2023/02/27 02:54:01;;;;;;;11.45;3.65;;;;;;;0.91;55.79;101822.09;4925000;29;20056;-67
2023/02/27 02:56:35;;;;;;;7.55;3.15;;;;;;;0.91;55.50;101836.50;4920862;29;20051;-66
2023/02/27 02:59:08;;;;;;;9.38;3.45;;;;;;;0.97;55.71;101811.22;4921258;29;20052;-68
2023/02/27 03:01:40;;;;;;;9.02;3.42;;;;;;;0.92;55.32;101811.03;4931084;29;20062;-67
2023/02/27 03:04:12;;;;;;;11.18;3.50;;;;;;;0.97;55.93;101824.78;4908891;29;20060;-67
2023/02/27 03:06:45;;;;;;;6.85;3.28;;;;;;;0.99;54.94;101819.13;4922913;29;20043;-68
2023/02/27 03:09:22;;;;;;;7.50;3.03;;;;;;;0.92;55.10;101819.16;4940409;29;20055;-68
2023/02/27 03:11:51;;;;;;;6.78;3.00;;;;;;;1.01;54.64;101812.41;4906726;29;20055;-67
2023/02/27 03:14:28;;;;;;;7.13;3.20;;;;;;;1.33;54.44;101813.09;4924405;29;20056;-67
2023/02/27 03:16:58;;;;;;;7.95;3.05;;;;;;;0.88;54.86;101842.38;4938644;29;20062;-67
2023/02/27 03:19:34;;;;;;;11.23;3.20;;;;;;;0.90;55.42;101817.75;4923980;29;20063;-67
2023/02/27 03:22:30;;;;;;;11.45;3.10;;;;;;;0.97;54.94;101823.94;4938632;29;20055;-68
2023/02/27 03:24:59;;;;;;;10.07;2.90;;;;;;;1.19;54.34;101816.22;4903958;29;20064;-68
2023/02/27 03:27:34;;;;;;;8.65;3.47;;;;;;;1.18;54.33;101828.94;4921202;29;20059;-68
2023/02/27 03:30:32;;;;;;;7.07;3.20;;;;;;;0.91;54.68;101830.22;4924043;29;20059;-67
2023/02/27 03:33:06;;;;;;;6.10;2.90;;;;;;;1.16;54.11;101822.91;4909489;29;20087;-67
2023/02/27 03:36:06;;;;;;;7.05;2.72;;;;;;;1.28;53.64;101831.94;4923049;29;20055;-67
2023/02/27 03:38:44;;;;;;;7.70;3.15;;;;;;;0.93;54.63;101841.69;4923700;29;20063;-68
2023/02/27 03:41:26;;;;;;;9.35;2.72;;;;;;;1.17;54.45;101827.25;4922353;29;20463;-68
2023/02/27 03:44:18;;;;;;;8.55;3.08;;;;;;;0.94;53.91;101846.09;4923240;29;20064;-69
2023/02/27 03:46:46;;;;;;;9.25;3.28;;;;;;;0.92;54.17;101834.63;4938816;29;20054;-68
2023/02/27 03:49:13;;;;;;;6.68;2.80;;;;;;;0.92;54.15;101853.59;4939338;29;20058;-64
2023/02/27 03:51:41;;;;;;;6.95;2.85;;;;;;;0.78;54.59;101843.94;4922030;29;20063;-64
2023/02/27 03:54:13;;;;;;;7.93;3.10;;;;;;;0.95;54.29;101845.84;4940564;29;20055;-64
2023/02/27 03:56:50;;;;;;;9.60;3.15;;;;;;;1.06;54.10;101841.59;4918114;29;20048;-68
2023/02/27 03:59:17;;;;;;;8.77;3.20;;;;;;;0.82;54.91;101856.81;4904448;29;20060;-68
2023/02/27 04:01:50;;;;;;;6.18;2.72;;;;;;;0.78;54.97;101841.22;4905534;29;20063;-67
2023/02/27 04:04:18;;;;;;;5.95;2.88;;;;;;;0.78;55.16;101854.78;4923546;29;20051;-69
2023/02/27 04:07:21;;;;;;;6.40;3.33;;;;;;;0.90;54.72;101844.84;4923270;29;20483;-68
2023/02/27 04:10:15;;;;;;;6.22;2.85;;;;;;;1.03;54.77;101850.97;4939024;29;20518;-68
2023/02/27 04:13:08;;;;;;;7.50;2.80;;;;;;;0.92;54.87;101856.31;4937912;29;20051;-67
2023/02/27 04:15:47;;;;;;;5.50;2.88;;;;;;;0.94;54.37;101848.81;4938783;29;20060;-64
2023/02/27 04:18:36;;;;;;;6.32;2.90;;;;;;;1.04;54.20;101841.81;4902625;29;20065;-64
2023/02/27 04:21:27;;;;;;;6.93;2.90;;;;;;;0.86;54.58;101843.63;4913170;29;20112;-70
2023/02/27 04:24:10;;;;;;;6.38;2.85;;;;;;;0.92;54.90;101849.00;4938947;29;20048;-63
2023/02/27 04:27:02;;;;;;;8.00;3.08;;;;;;;0.89;54.69;101848.63;4905593;29;20051;-65
2023/02/27 04:29:35;;;;;;;7.47;2.80;;;;;;;0.98;54.77;101858.13;4939761;29;20058;-67
2023/02/27 04:32:34;;;;;;;7.18;2.90;;;;;;;0.83;55.02;101855.78;4938294;29;20051;-64
2023/02/27 04:35:19;;;;;;;5.93;2.97;;;;;;;1.01;54.71;101868.56;4931123;29;20522;-68
2023/02/27 04:38:04;;;;;;;6.70;2.88;;;;;;;0.84;55.03;101862.00;4922057;29;20411;-67
2023/02/27 04:40:36;;;;;;;7.22;3.15;;;;;;;0.97;54.55;101861.91;4938468;29;20048;-63
2023/02/27 04:43:06;;;;;;;6.07;2.95;;;;;;;1.02;54.32;101860.19;4938269;29;20063;-64
2023/02/27 04:45:34;;;;;;;;;;;;;;;0.84;55.43;101865.56;4938754;29;20058;-63
2023/02/27 04:48:06;;;;;;;7.43;3.03;;;;;;;0.90;54.75;101886.38;4938265;29;20327;-64
2023/02/27 04:50:37;;;;;;;9.80;3.42;;;;;;;0.80;55.58;101872.47;4921614;29;20066;-67
2023/02/27 04:53:17;;;;;;;6.63;2.70;;;;;;;0.75;56.13;101874.22;4939151;29;20062;-68
2023/02/27 04:55:48;;;;;;;10.13;3.50;;;;;;;0.83;55.52;101872.03;4921332;29;20055;-69
2023/02/27 04:58:24;;;;;;;10.13;3.40;;;;;;;0.81;55.09;101878.72;4903291;29;20056;-67
2023/02/27 05:00:59;;;;;;;10.05;2.97;;;;;;;0.89;55.41;101873.06;4910589;29;20439;-67
2023/02/27 05:03:32;;;;;;;8.00;3.10;;;;;;;0.84;55.54;101886.41;4926678;29;20063;-65
2023/02/27 05:06:01;;;;;;;7.28;3.22;;;;;;;0.77;55.88;101893.78;4925070;29;20062;-63
2023/02/27 05:08:54;;;;;;;7.63;3.37;;;;;;;0.71;55.60;101883.81;4926676;29;20054;-63
2023/02/27 05:11:45;;;;;;;8.68;3.08;;;;;;;0.61;56.71;101887.00;4918196;29;20302;-69
2023/02/27 05:14:24;;;;;;;6.60;3.03;;;;;;;0.68;56.12;101882.38;4935708;29;20055;-64
2023/02/27 05:17:03;;;;;;;8.30;3.38;;;;;;;0.68;56.60;101895.94;4909213;29;20052;-67
2023/02/27 05:19:31;;;;;;;8.43;3.40;;;;;;;0.58;57.07;101902.88;4942709;29;20064;-68
2023/02/27 05:22:14;;;;;;;12.65;4.15;;;;;;;0.55;57.50;101896.03;4941634;29;20392;-64
2023/02/27 05:24:42;;;;;;;12.98;4.78;;;;;;;0.63;57.98;101893.03;4942207;29;20052;-68
2023/02/27 05:27:19;;;;;;;8.18;3.60;;;;;;;0.58;57.57;101890.16;4940699;29;20047;-66
2023/02/27 05:29:51;;;;;;;12.00;3.80;;;;;;;0.53;58.35;101895.41;4925893;29;20357;-67
2023/02/27 05:32:22;;;;;;;10.75;3.53;;;;;;;0.70;57.48;101899.25;4940343;29;20056;-64
2023/02/27 05:34:53;;;;;;;8.63;3.70;;;;;;;0.62;58.26;101896.81;4942882;29;20048;-64
2023/02/27 05:37:31;;;;;;;6.88;3.72;;;;;;;0.58;58.02;101886.63;4939686;29;20067;-64
2023/02/27 05:40:00;;;;;;;9.27;3.80;;;;;;;0.62;58.61;101893.25;4925296;29;20093;-65
2023/02/27 05:42:32;;;;;;;10.35;3.88;;;;;;;0.62;58.60;101898.69;4924396;29;20048;-64
2023/02/27 05:45:06;;;;;;;8.32;3.70;;;;;;;0.55;58.45;101887.91;4914075;29;20090;-65
2023/02/27 05:47:36;;;;;;;8.38;3.50;;;;;;;0.33;59.84;101894.69;4924637;29;20412;-64
2023/02/27 05:50:14;;;;;;;7.47;4.35;;;;;;;0.35;59.86;101895.31;4925807;29;20064;-65
2023/02/27 05:52:42;;;;;;;10.10;3.72;;;;;;;0.52;59.39;101896.47;4941819;29;20083;-65
2023/02/27 05:55:18;;;;;;;9.45;4.18;;;;;;;0.79;58.84;101888.97;4941545;29;20388;-65
2023/02/27 05:57:54;;;;;;;10.43;3.75;;;;;;;0.52;59.21;101899.19;4912668;29;20392;-66
2023/02/27 06:00:38;;;;;;;11.18;4.05;;;;;;;0.36;60.25;101893.44;4924221;29;20496;-65
2023/02/27 06:03:05;;;;;;;9.50;4.18;;;;;;;0.40;59.50;101900.91;4925353;29;20055;-65
2023/02/27 06:05:33;;;;;;;8.95;4.10;;;;;;;0.45;60.50;101909.25;4924444;29;20051;-65
2023/02/27 06:08:00;;;;;;;7.90;3.70;;;;;;;0.44;60.50;101904.84;4942215;29;20051;-66
2023/02/27 06:10:28;;;;;;;13.40;3.95;;;;;;;0.30;60.99;101910.59;4941225;29;20056;-68
2023/02/27 06:12:55;;;;;;;8.35;3.65;;;;;;;0.37;61.03;101903.22;4941895;29;20459;-67
2023/02/27 06:15:22;;;;;;;8.80;3.63;;;;;;;0.33;61.32;101910.94;4941821;29;20055;-68
2023/02/27 06:17:50;;;;;;;9.18;3.55;;;;;;;0.30;61.40;101908.69;4941446;29;20055;-64
2023/02/27 06:20:17;;;;;;;10.57;3.95;;;;;;;0.43;60.78;101905.06;4940504;29;20055;-65
2023/02/27 06:22:45;;;;;;;9.23;4.10;;;;;;;0.39;60.89;101912.81;4941434;29;20055;-65
2023/02/27 06:25:12;;;;;;;9.35;4.10;;;;;;;0.53;60.59;101910.84;4942114;29;20047;-64
2023/02/27 06:27:40;;;;;;;9.10;4.35;;;;;;;0.60;61.00;101912.47;4941078;29;20048;-66
2023/02/27 06:30:09;;;;;;;11.80;5.07;;;;;;;0.77;60.42;101927.16;4941971;29;20132;-65
2023/02/27 06:32:37;;;;;;;18.30;4.30;;;;;;;0.58;60.73;101936.25;4940956;29;20063;-65
2023/02/27 06:35:05;;;;;;;11.18;4.13;;;;;;;0.55;61.11;101922.28;4941147;29;20055;-64
2023/02/27 06:37:32;;;;;;;9.55;3.67;;;;;;;0.56;60.60;101929.41;4940605;29;20542;-65
2023/02/27 06:40:00;;;;;;;7.22;3.72;;;;;;;0.45;60.56;101935.50;4941918;29;20051;-64
2023/02/27 06:42:28;;;;;;;10.70;3.72;;;;;;;0.38;61.38;101942.84;4939485;29;20397;-64
2023/02/27 06:44:55;;;;;;;8.05;3.92;;;;;;;0.39;60.83;101941.78;4941760;29;20051;-64
2023/02/27 06:47:22;;;;;;;9.20;3.85;;;;;;;0.24;61.09;101938.53;4940320;29;20087;-64
2023/02/27 06:49:50;;;;;;;9.95;3.80;;;;;;;0.31;60.83;101939.34;4924703;29;20071;-65
2023/02/27 06:52:17;;;;;;;8.05;3.72;;;;;;;0.23;61.17;101947.72;4922743;29;20059;-66
2023/02/27 06:54:45;;;;;;;9.00;3.88;;;;;;;0.34;61.23;101947.03;4941408;29;20067;-64
2023/02/27 06:57:12;;;;;;;8.57;3.72;;;;;;;0.46;60.87;101965.09;4915279;29;20528;-64
2023/02/27 06:59:40;;;;;;;11.55;4.32;;;;;;;0.57;60.64;101958.16;4922517;29;20060;-65
2023/02/27 07:02:13;;;;;;;9.80;3.80;;;;;;;0.42;60.93;101952.22;4936175;29;20424;-65
2023/02/27 07:04:40;;;;;;;8.60;3.35;;;;;;;0.29;60.82;101963.09;4941733;29;20514;-65
2023/02/27 07:07:08;;;;;;;6.93;3.80;;;;;;;0.39;60.78;101958.03;4923058;29;20059;-64
2023/02/27 07:09:55;;;;;;;12.45;4.60;;;;;;;0.52;60.15;101953.41;4941706;29;20052;-65
2023/02/27 07:12:23;;;;;;;11.77;4.60;;;;;;;0.51;60.98;101954.44;4938715;29;20418;-65
2023/02/27 07:14:50;;;;;;;12.13;4.13;;;;;;;0.49;60.63;101959.22;4941240;29;20405;-65
2023/02/27 07:17:18;;;;;;;9.88;3.75;;;;;;;0.41;60.50;101958.66;4928715;29;20047;-65
2023/02/27 07:19:45;;;;;;;12.38;3.95;;;;;;;0.39;60.98;101964.28;4917769;29;20056;-66
2023/02/27 07:22:13;;;;;;;15.07;4.18;;;;;;;0.31;61.12;101966.44;4917143;29;20079;-65
2023/02/27 07:24:40;;;;;;;11.18;4.38;;;;;;;0.54;61.24;101956.69;4903343;29;20056;-66
2023/02/27 07:27:08;;;;;;;10.07;4.15;;;;;;;0.41;60.89;101969.50;4915743;29;20048;-65
2023/02/27 07:29:35;;;;;;;10.95;3.83;;;;;;;0.48;60.55;101970.28;4930735;29;20041;-66
2023/02/27 07:32:03;;;;;;;9.70;4.13;;;;;;;0.40;60.28;101965.94;4930805;29;20052;-66
2023/02/27 07:34:30;;;;;;;9.50;4.28;;;;;;;0.46;60.63;101989.50;4920851;29;20056;-65
2023/02/27 07:36:58;;;;;;;12.50;4.15;;;;;;;0.64;59.95;101978.75;4915675;29;20468;-64
2023/02/27 07:39:25;;;;;;;8.02;4.60;;;;;;;0.54;60.24;101972.97;4922137;29;20059;-65
2023/02/27 07:41:52;;;;;;;11.43;3.97;;;;;;;0.60;59.72;101979.41;4920262;29;20048;-65
2023/02/27 07:44:21;;;;;;;8.73;3.90;;;;;;;0.38;60.26;101980.78;4899311;29;20049;-66
2023/02/27 07:46:48;;;;;;;9.32;4.20;;;;;;;0.53;59.60;101974.03;4908419;29;20060;-66
2023/02/27 07:49:16;;;;;;;9.88;4.03;;;;;;;0.75;59.24;101979.94;4899653;29;20875;-72
2023/02/27 07:51:44;;;;;;;13.70;5.35;;;;;;;0.79;59.43;101987.41;4915700;29;20060;-71
2023/02/27 07:54:11;;;;;;;10.95;4.32;;;;;;;0.76;60.20;101989.75;4917888;29;20055;-72
2023/02/27 07:56:38;;;;;;;10.68;4.10;;;;;;;1.06;60.02;101991.59;4901040;29;20052;-73
2023/02/27 07:59:06;;;;;;;13.50;4.38;;;;;;;1.24;59.26;101987.31;4907492;29;20049;-73
2023/02/27 08:01:33;;;;;;;10.30;4.18;;;;;;;1.52;59.04;101982.25;4910122;29;20051;-71
2023/02/27 08:04:01;;;;;;;12.35;4.70;;;;;;;1.13;57.68;101989.66;4901586;29;20835;-78
2023/02/27 08:06:29;;;;;;;8.68;3.65;;;;;;;0.80;57.98;101988.25;4903730;29;20056;-73
2023/02/27 08:08:58;;;;;;;11.30;4.65;;;;;;;0.79;58.17;101989.28;4901558;29;20055;-72
2023/02/27 08:11:25;;;;;;;11.10;4.05;;;;;;;0.82;57.75;101986.16;4897928;29;20056;-73
2023/02/27 08:13:53;;;;;;;8.60;3.90;;;;;;;0.90;57.35;101991.31;4901792;29;20518;-72
2023/02/27 08:16:27;;;;;;;10.52;4.10;;;;;;;0.89;56.97;101992.38;4911050;29;20151;-72
2023/02/27 08:18:56;;;;;;;15.57;4.63;;;;;;;1.08;56.62;101994.94;4899714;29;20048;-74
2023/02/27 08:21:23;;;;;;;12.52;4.40;;;;;;;1.32;55.81;101987.88;4909889;29;20067;-74
2023/02/27 08:23:51;;;;;;;9.25;3.92;;;;;;;0.96;56.55;101998.56;4906043;29;20060;-72
2023/02/27 08:26:20;;;;;;;10.70;3.97;;;;;;;1.03;56.27;102012.91;4908135;29;20427;-74
2023/02/27 08:28:47;;;;;;;13.93;4.97;;;;;;;1.02;56.02;101998.53;4883632;29;20073;-73
2023/02/27 08:31:15;;;;;;;10.10;4.32;;;;;;;1.02;55.74;101994.97;4906047;29;20056;-74
2023/02/27 08:33:42;;;;;;;13.32;3.70;;;;;;;1.09;55.68;101993.91;4903117;29;20056;-73
2023/02/27 08:36:10;;;;;;;8.75;3.88;;;;;;;1.22;55.29;101995.66;4903549;29;20052;-75
2023/02/27 08:38:37;;;;;;;8.38;3.63;;;;;;;1.51;55.32;101997.72;4904022;29;20420;-75
2023/02/27 08:41:05;;;;;;;9.70;3.53;;;;;;;1.99;57.78;102022.31;4903232;29;20071;-33
2023/02/27 08:43:32;;;;;;;10.15;3.85;;;;;;;2.04;51.54;101989.88;4901598;29;20071;-73
2023/02/27 08:46:00;;;;;;;13.30;3.88;;;;;;;1.52;52.87;101993.09;4904880;29;20060;-72
2023/02/27 08:48:27;;;;;;;17.60;5.88;;;;;;;1.53;52.96;101995.63;4899762;29;20060;-72
2023/02/27 08:50:55;;;;;;;10.48;4.63;;;;;;;1.68;52.29;102006.13;4898379;29;20079;-72
2023/02/27 08:53:24;;;;;;;9.98;4.20;;;;;;;1.83;51.42;102010.13;4913959;29;20048;-70
2023/02/27 08:55:52;;;;;;;8.93;4.07;;;;;;;1.72;51.83;101996.47;4898225;29;20044;-72
2023/02/27 08:58:19;;;;;;;12.05;4.82;;;;;;;1.90;51.91;101999.22;4910902;29;20377;-71
2023/02/27 09:00:47;;;;;;;6.43;3.78;;;;;;;1.85;51.25;101996.31;4900826;29;20613;-71
2023/02/27 09:03:15;;;;;;;7.63;3.60;;;;;;;1.77;51.20;102012.94;4900117;29;20049;-71
2023/02/27 09:05:42;;;;;;;19.25;4.20;;;;;;;1.80;51.42;102005.16;4898805;29;20060;-70
2023/02/27 09:08:10;;;;;;;8.90;3.90;;;;;;;1.77;50.59;102019.19;4896508;29;20056;-70
2023/02/27 09:10:38;;;;;;;15.27;6.32;;;;;;;1.81;50.50;102011.44;4897978;29;20052;-71
2023/02/27 09:13:05;;;;;;;23.73;10.52;;;;;;;1.95;50.86;102008.34;4913477;29;20064;-71
2023/02/27 09:15:36;;;;;;;11.90;4.57;;;;;;;1.98;50.40;102007.06;4899274;29;20056;-71
2023/02/27 09:18:05;;;;;;;6.32;3.17;;;;;;;2.04;49.79;102006.19;4916390;29;20489;-70
2023/02/27 09:20:39;;;;;;;13.77;3.53;;;;;;;2.06;49.63;102002.16;4916246;29;20062;-71
2023/02/27 09:23:06;;;;;;;10.88;3.15;;;;;;;2.08;49.36;102007.38;4919834;29;20048;-70
2023/02/27 09:25:34;;;;;;;6.90;3.13;;;;;;;2.14;49.42;102018.16;4917558;29;20078;-73
2023/02/27 09:28:01;;;;;;;6.63;2.97;;;;;;;2.08;49.42;102005.50;4886621;29;20080;-70
2023/02/27 09:30:29;;;;;;;8.82;3.42;;;;;;;2.11;49.06;102015.09;4916140;29;20048;-71
2023/02/27 09:32:56;;;;;;;8.82;3.58;;;;;;;2.07;49.00;102014.72;4921406;29;20055;-70
2023/02/27 09:35:24;;;;;;;8.82;3.47;;;;;;;2.16;49.20;102007.88;4891257;29;20063;-71
2023/02/27 09:37:52;;;;;;;7.10;3.13;;;;;;;2.19;48.63;102018.34;4920837;29;20048;-71
2023/02/27 09:40:23;;;;;;;7.50;2.97;;;;;;;2.08;48.41;102024.50;4919016;29;20545;-72
2023/02/27 09:42:56;;;;;;;11.88;2.88;;;;;;;2.09;48.40;102007.13;4886969;29;20052;-71
2023/02/27 09:45:26;;;;;;;8.13;3.10;;;;;;;2.13;47.98;102019.22;4920089;29;20055;-71
2023/02/27 09:48:00;;;;;;;8.13;3.17;;;;;;;2.22;47.87;102019.75;4920655;29;20048;-77
2023/02/27 09:50:46;;;;;;;8.02;3.22;;;;;;;2.39;47.72;102017.25;4919137;29;20103;-71
2023/02/27 09:53:18;;;;;;;8.10;4.45;;;;;;;2.54;47.47;102013.09;4907469;29;20051;-72
2023/02/27 09:55:45;;;;;;;6.80;3.35;;;;;;;2.55;47.43;102011.19;4909488;29;20055;-70
2023/02/27 09:58:36;;;;;;;9.23;3.38;;;;;;;2.60;46.74;102020.31;4926474;29;20070;-73
2023/02/27 10:01:10;;;;;;;9.18;3.40;;;;;;;2.54;47.26;102014.97;4911194;29;20048;-71
2023/02/27 10:03:56;;;;;;;7.22;3.55;;;;;;;2.70;46.87;102019.78;4898689;29;20546;-71
2023/02/27 10:06:35;;;;;;;11.15;4.72;;;;;;;2.54;46.83;102012.25;4927139;29;20062;-71
2023/02/27 10:09:09;;;;;;;12.00;4.07;;;;;;;2.57;47.21;102017.22;4921870;29;20048;-72
2023/02/27 10:11:55;;;;;;;8.82;3.30;;;;;;;2.67;46.83;102021.06;4935330;29;20070;-71
2023/02/27 10:14:42;;;;;;;7.72;3.20;;;;;;;2.51;46.88;102013.53;4918816;29;20055;-70
2023/02/27 10:17:24;;;;;;;10.40;3.17;;;;;;;2.64;46.45;102009.81;4919399;29;20055;-70
2023/02/27 10:19:52;;;;;;;7.20;3.42;;;;;;;2.67;46.25;102015.63;4914026;29;20052;-70
2023/02/27 10:22:27;;;;;;;7.75;3.13;;;;;;;2.71;45.54;102027.72;4902470;29;20055;-71
2023/02/27 10:25:02;;;;;;;5.63;2.70;;;;;;;2.73;45.50;102036.47;4901442;29;20048;-70
2023/02/27 10:27:31;;;;;;;6.40;3.10;;;;;;;2.85;45.33;102014.75;4906661;29;20055;-71
2023/02/27 10:30:19;;;;;;;10.73;2.83;;;;;;;2.97;44.82;102013.72;4905352;29;20129;-71
2023/02/27 10:33:05;;;;;;;12.07;3.50;;;;;;;3.12;45.08;102011.41;4917597;29;20052;-70
2023/02/27 10:35:40;;;;;;;11.02;3.20;;;;;;;3.29;44.74;102006.13;4923256;29;20060;-70
2023/02/27 10:38:18;;;;;;;7.97;2.90;;;;;;;3.07;44.42;102016.72;4929917;29;20052;-71
2023/02/27 10:40:47;;;;;;;8.88;3.00;;;;;;;3.19;44.31;102017.56;4906498;29;20055;-70
2023/02/27 10:43:17;;;;;;;7.35;2.83;;;;;;;3.17;44.42;102010.72;4909957;29;20056;-72
2023/02/27 10:45:45;;;;;;;7.28;2.63;;;;;;;3.25;44.18;102013.09;4917282;29;20067;-72
2023/02/27 10:48:13;;;;;;;8.85;2.88;;;;;;;3.29;43.50;102022.47;4914940;29;20063;-72
2023/02/27 10:50:43;;;;;;;12.27;2.83;;;;;;;3.29;43.35;102044.25;4904187;29;20067;-71
2023/02/27 10:53:24;;;;;;;;;;;;;;;3.22;43.33;102016.28;4901229;29;20068;-72
2023/02/27 10:56:03;;;;;;;5.35;2.60;;;;;;;3.41;42.92;102006.97;4914160;29;20275;-71
2023/02/27 10:58:33;;;;;;;8.50;3.15;;;;;;;3.62;42.68;102025.47;4905921;29;20052;-72
2023/02/27 11:01:06;;;;;;;8.98;2.85;;;;;;;3.46;42.53;102009.81;4917646;29;20055;-72
2023/02/27 11:03:36;;;;;;;8.63;2.75;;;;;;;3.44;42.65;102006.50;4912595;29;20063;-73
2023/02/27 11:06:21;;;;;;;8.88;2.92;;;;;;;3.72;42.36;102001.19;4905403;29;20066;-72
2023/02/27 11:09:26;;;;;;;5.68;2.78;;;;;;;3.58;41.57;101998.91;4916817;29;20048;-71
2023/02/27 11:11:55;;;;;;;6.38;2.45;;;;;;;3.69;41.43;102003.56;4918315;29;20063;-71
2023/02/27 11:14:30;;;;;;;6.40;2.10;;;;;;;3.78;40.10;102010.31;4913704;29;20055;-71
2023/02/27 11:17:00;;;;;;;5.82;2.10;;;;;;;3.79;38.94;101992.88;4922382;29;20487;-71
2023/02/27 11:19:38;;;;;;;5.18;2.38;;;;;;;3.85;38.82;101986.50;4920638;29;20520;-72
2023/02/27 11:22:22;;;;;;;8.75;2.88;;;;;;;3.91;38.81;101986.38;4922957;29;20412;-72
2023/02/27 11:24:52;;;;;;;6.05;2.75;;;;;;;3.96;38.57;101985.63;4903122;29;20052;-72
2023/02/27 11:27:21;;;;;;;7.65;2.47;;;;;;;3.85;38.62;101981.88;4910016;29;20121;-71
2023/02/27 11:29:56;;;;;;;3.75;1.90;;;;;;;3.75;38.45;101980.81;4915487;29;20040;-72
2023/02/27 11:32:29;;;;;;;7.55;3.20;;;;;;;3.93;38.33;101981.50;4918296;29;20059;-72
2023/02/27 11:34:56;;;;;;;7.00;2.55;;;;;;;3.94;38.10;101976.91;4917853;29;20139;-70
2023/02/27 11:37:34;;;;;;;7.88;2.45;;;;;;;3.92;38.33;101979.03;4902657;29;20048;-74
2023/02/27 11:40:05;;;;;;;7.78;2.70;;;;;;;4.04;37.44;101977.09;4907892;29;20051;-69
2023/02/27 11:42:35;;;;;;;6.13;1.95;;;;;;;4.10;37.17;101968.78;4921650;29;20054;-72
2023/02/27 11:45:20;;;;;;;6.68;2.70;;;;;;;4.09;37.40;101969.88;4907854;29;20060;-71
2023/02/27 11:48:11;;;;;;;8.20;2.30;;;;;;;4.21;37.56;101978.84;4923044;29;20086;-70
2023/02/27 11:50:50;;;;;;;8.63;2.53;;;;;;;4.46;37.04;101964.91;4909044;29;20044;-70
2023/02/27 11:53:54;;;;;;;5.28;2.35;;;;;;;4.41;36.93;101962.09;4922573;29;20052;-69
2023/02/27 11:56:42;;;;;;;9.80;3.13;;;;;;;4.54;36.67;101965.34;4923067;29;20063;-66
2023/02/27 11:59:10;;;;;;;7.85;2.80;;;;;;;4.50;36.52;101958.72;4919478;29;20056;-65